sensor_id;sensor_type;location;lat;lon;timestamp;temperature;humidity
51615;DHT22;37695;52.960;6.188;2022-08-21T00:00:26;15.00;99.90
51615;DHT22;37695;52.960;6.188;2022-08-21T00:03:02;15.00;99.90
51615;DHT22;37695;52.960;6.188;2022-08-21T00:05:29;15.00;99.90
51615;DHT22;37695;52.960;6.188;2022-08-21T00:07:56;15.00;99.90
51615;DHT22;37695;52.960;6.188;2022-08-21T00:10:22;15.00;99.90
51615;DHT22;37695;52.960;6.188;2022-08-21T00:12:48;14.90;99.90
51615;DHT22;37695;52.960;6.188;2022-08-21T00:15:21;14.90;99.90
51615;DHT22;37695;52.960;6.188;2022-08-21T00:17:47;14.90;99.90
51615;DHT22;37695;52.960;6.188;2022-08-21T00:20:15;14.90;99.90
51615;DHT22;37695;52.960;6.188;2022-08-21T00:22:41;14.90;99.90
51615;DHT22;37695;52.960;6.188;2022-08-21T00:25:09;14.90;99.90
51615;DHT22;37695;52.960;6.188;2022-08-21T00:27:35;14.80;99.90
51615;DHT22;37695;52.960;6.188;2022-08-21T00:30:01;14.80;99.90
51615;DHT22;37695;52.960;6.188;2022-08-21T00:32:27;14.80;99.90
51615;DHT22;37695;52.960;6.188;2022-08-21T00:34:54;14.70;99.90
51615;DHT22;37695;52.960;6.188;2022-08-21T00:37:21;14.70;99.90
51615;DHT22;37695;52.960;6.188;2022-08-21T00:39:46;14.70;99.90
51615;DHT22;37695;52.960;6.188;2022-08-21T00:42:13;14.70;99.90
51615;DHT22;37695;52.960;6.188;2022-08-21T00:44:43;14.70;99.90
51615;DHT22;37695;52.960;6.188;2022-08-21T00:47:10;14.60;99.90
51615;DHT22;37695;52.960;6.188;2022-08-21T00:49:36;14.60;99.90
51615;DHT22;37695;52.960;6.188;2022-08-21T00:52:03;14.60;99.90
51615;DHT22;37695;52.960;6.188;2022-08-21T00:54:31;14.60;99.90
51615;DHT22;37695;52.960;6.188;2022-08-21T00:57:02;14.60;99.90
51615;DHT22;37695;52.960;6.188;2022-08-21T00:59:34;14.60;99.90
51615;DHT22;37695;52.960;6.188;2022-08-21T01:02:00;14.50;99.90
51615;DHT22;37695;52.960;6.188;2022-08-21T01:04:26;14.60;99.90
51615;DHT22;37695;52.960;6.188;2022-08-21T01:06:52;14.60;99.90
51615;DHT22;37695;52.960;6.188;2022-08-21T01:09:18;14.60;99.90
51615;DHT22;37695;52.960;6.188;2022-08-21T01:11:45;14.60;99.90
51615;DHT22;37695;52.960;6.188;2022-08-21T01:14:12;14.60;99.90
51615;DHT22;37695;52.960;6.188;2022-08-21T01:16:40;14.50;99.90
51615;DHT22;37695;52.960;6.188;2022-08-21T01:19:08;14.40;99.90
51615;DHT22;37695;52.960;6.188;2022-08-21T01:21:34;14.40;99.90
51615;DHT22;37695;52.960;6.188;2022-08-21T01:23:59;14.30;99.90
51615;DHT22;37695;52.960;6.188;2022-08-21T01:26:28;14.30;99.90
51615;DHT22;37695;52.960;6.188;2022-08-21T01:29:00;14.30;99.90
51615;DHT22;37695;52.960;6.188;2022-08-21T01:31:28;14.30;99.90
51615;DHT22;37695;52.960;6.188;2022-08-21T01:33:55;14.30;99.90
51615;DHT22;37695;52.960;6.188;2022-08-21T01:36:21;14.30;99.90
51615;DHT22;37695;52.960;6.188;2022-08-21T01:38:47;14.40;99.90
51615;DHT22;37695;52.960;6.188;2022-08-21T01:41:14;14.40;99.90
51615;DHT22;37695;52.960;6.188;2022-08-21T01:43:40;14.30;99.90
51615;DHT22;37695;52.960;6.188;2022-08-21T01:46:06;14.30;99.90
51615;DHT22;37695;52.960;6.188;2022-08-21T01:48:32;14.30;99.90
51615;DHT22;37695;52.960;6.188;2022-08-21T01:50:58;14.30;99.90
51615;DHT22;37695;52.960;6.188;2022-08-21T01:53:24;14.30;99.90
51615;DHT22;37695;52.960;6.188;2022-08-21T01:55:49;14.30;99.90
51615;DHT22;37695;52.960;6.188;2022-08-21T01:58:15;14.30;99.90
51615;DHT22;37695;52.960;6.188;2022-08-21T02:00:41;14.30;99.90
51615;DHT22;37695;52.960;6.188;2022-08-21T02:03:07;14.30;99.90
51615;DHT22;37695;52.960;6.188;2022-08-21T02:05:33;14.40;99.90
51615;DHT22;37695;52.960;6.188;2022-08-21T02:07:58;14.30;99.90
51615;DHT22;37695;52.960;6.188;2022-08-21T02:10:31;14.40;99.90
51615;DHT22;37695;52.960;6.188;2022-08-21T02:12:57;14.40;99.90
51615;DHT22;37695;52.960;6.188;2022-08-21T02:15:25;14.30;99.90
51615;DHT22;37695;52.960;6.188;2022-08-21T02:17:59;14.30;99.90
51615;DHT22;37695;52.960;6.188;2022-08-21T02:20:36;14.40;99.90
51615;DHT22;37695;52.960;6.188;2022-08-21T02:23:03;14.30;99.90
51615;DHT22;37695;52.960;6.188;2022-08-21T02:25:30;14.30;99.90
51615;DHT22;37695;52.960;6.188;2022-08-21T02:27:56;14.40;99.90
51615;DHT22;37695;52.960;6.188;2022-08-21T02:30:29;14.30;99.90
51615;DHT22;37695;52.960;6.188;2022-08-21T02:32:55;14.40;99.90
51615;DHT22;37695;52.960;6.188;2022-08-21T02:35:21;14.30;99.90
51615;DHT22;37695;52.960;6.188;2022-08-21T02:37:51;14.30;99.90
51615;DHT22;37695;52.960;6.188;2022-08-21T02:40:20;14.40;99.90
51615;DHT22;37695;52.960;6.188;2022-08-21T02:42:46;14.40;99.90
51615;DHT22;37695;52.960;6.188;2022-08-21T02:45:13;14.40;99.90
51615;DHT22;37695;52.960;6.188;2022-08-21T02:47:40;14.40;99.90
51615;DHT22;37695;52.960;6.188;2022-08-21T02:50:11;14.30;99.90
51615;DHT22;37695;52.960;6.188;2022-08-21T02:52:37;14.30;99.90
51615;DHT22;37695;52.960;6.188;2022-08-21T02:55:03;14.40;99.90
51615;DHT22;37695;52.960;6.188;2022-08-21T02:57:29;14.30;99.90
51615;DHT22;37695;52.960;6.188;2022-08-21T02:59:58;14.30;99.90
51615;DHT22;37695;52.960;6.188;2022-08-21T03:02:23;14.30;99.90
51615;DHT22;37695;52.960;6.188;2022-08-21T03:04:49;14.30;99.90
51615;DHT22;37695;52.960;6.188;2022-08-21T03:07:14;14.20;99.90
51615;DHT22;37695;52.960;6.188;2022-08-21T03:09:40;14.20;99.90
51615;DHT22;37695;52.960;6.188;2022-08-21T03:12:06;14.20;99.90
51615;DHT22;37695;52.960;6.188;2022-08-21T03:14:31;14.10;99.90
51615;DHT22;37695;52.960;6.188;2022-08-21T03:16:57;14.10;99.90
51615;DHT22;37695;52.960;6.188;2022-08-21T03:19:23;14.10;99.90
51615;DHT22;37695;52.960;6.188;2022-08-21T03:21:48;14.10;99.90
51615;DHT22;37695;52.960;6.188;2022-08-21T03:24:14;14.10;99.90
51615;DHT22;37695;52.960;6.188;2022-08-21T03:26:39;14.00;99.90
51615;DHT22;37695;52.960;6.188;2022-08-21T03:29:05;14.00;99.90
51615;DHT22;37695;52.960;6.188;2022-08-21T03:31:32;14.00;99.90
51615;DHT22;37695;52.960;6.188;2022-08-21T03:33:58;13.90;99.90
51615;DHT22;37695;52.960;6.188;2022-08-21T03:36:24;14.00;99.90
51615;DHT22;37695;52.960;6.188;2022-08-21T03:38:50;14.00;99.90
51615;DHT22;37695;52.960;6.188;2022-08-21T03:41:15;14.00;99.90
51615;DHT22;37695;52.960;6.188;2022-08-21T03:43:41;14.00;99.90
51615;DHT22;37695;52.960;6.188;2022-08-21T03:46:07;14.00;99.90
51615;DHT22;37695;52.960;6.188;2022-08-21T03:48:34;14.00;99.90
51615;DHT22;37695;52.960;6.188;2022-08-21T03:51:00;14.10;99.90
51615;DHT22;37695;52.960;6.188;2022-08-21T03:53:25;14.00;99.90
51615;DHT22;37695;52.960;6.188;2022-08-21T03:55:52;14.10;99.90
51615;DHT22;37695;52.960;6.188;2022-08-21T03:58:21;14.10;99.90
51615;DHT22;37695;52.960;6.188;2022-08-21T04:00:49;14.10;99.90
51615;DHT22;37695;52.960;6.188;2022-08-21T04:03:15;14.10;99.90
51615;DHT22;37695;52.960;6.188;2022-08-21T04:05:41;14.10;99.90
51615;DHT22;37695;52.960;6.188;2022-08-21T04:08:07;14.00;99.90
51615;DHT22;37695;52.960;6.188;2022-08-21T04:10:35;14.00;99.90
51615;DHT22;37695;52.960;6.188;2022-08-21T04:13:01;14.00;99.90
51615;DHT22;37695;52.960;6.188;2022-08-21T04:15:27;14.00;99.90
51615;DHT22;37695;52.960;6.188;2022-08-21T04:17:53;14.00;99.90
51615;DHT22;37695;52.960;6.188;2022-08-21T04:20:21;14.00;99.90
51615;DHT22;37695;52.960;6.188;2022-08-21T04:22:47;14.00;99.90
51615;DHT22;37695;52.960;6.188;2022-08-21T04:25:14;13.90;99.90
51615;DHT22;37695;52.960;6.188;2022-08-21T04:27:41;13.90;99.90
51615;DHT22;37695;52.960;6.188;2022-08-21T04:30:08;13.90;99.90
51615;DHT22;37695;52.960;6.188;2022-08-21T04:32:35;14.00;99.90
51615;DHT22;37695;52.960;6.188;2022-08-21T04:35:07;13.90;99.90
51615;DHT22;37695;52.960;6.188;2022-08-21T04:37:34;14.00;99.90
51615;DHT22;37695;52.960;6.188;2022-08-21T04:39:59;14.00;99.90
51615;DHT22;37695;52.960;6.188;2022-08-21T04:42:26;14.00;99.90
51615;DHT22;37695;52.960;6.188;2022-08-21T04:44:53;14.00;99.90
51615;DHT22;37695;52.960;6.188;2022-08-21T04:47:19;14.00;99.90
51615;DHT22;37695;52.960;6.188;2022-08-21T04:49:44;14.00;99.90
51615;DHT22;37695;52.960;6.188;2022-08-21T04:52:11;14.00;99.90
51615;DHT22;37695;52.960;6.188;2022-08-21T04:54:38;14.00;99.90
51615;DHT22;37695;52.960;6.188;2022-08-21T04:57:07;14.00;99.90
51615;DHT22;37695;52.960;6.188;2022-08-21T04:59:40;14.00;99.90
51615;DHT22;37695;52.960;6.188;2022-08-21T05:02:09;14.00;99.90
51615;DHT22;37695;52.960;6.188;2022-08-21T05:04:39;14.00;99.90
51615;DHT22;37695;52.960;6.188;2022-08-21T05:07:11;14.00;99.90
51615;DHT22;37695;52.960;6.188;2022-08-21T05:09:38;14.00;99.90
51615;DHT22;37695;52.960;6.188;2022-08-21T05:12:04;14.10;99.90
51615;DHT22;37695;52.960;6.188;2022-08-21T05:14:30;14.10;99.90
51615;DHT22;37695;52.960;6.188;2022-08-21T05:16:55;14.10;99.90
51615;DHT22;37695;52.960;6.188;2022-08-21T05:19:21;14.10;99.90
51615;DHT22;37695;52.960;6.188;2022-08-21T05:21:47;14.10;99.90
51615;DHT22;37695;52.960;6.188;2022-08-21T05:24:14;14.20;99.90
51615;DHT22;37695;52.960;6.188;2022-08-21T05:26:39;14.20;99.90
51615;DHT22;37695;52.960;6.188;2022-08-21T05:29:05;14.20;99.90
51615;DHT22;37695;52.960;6.188;2022-08-21T05:31:31;14.20;99.90
51615;DHT22;37695;52.960;6.188;2022-08-21T05:33:57;14.30;99.90
51615;DHT22;37695;52.960;6.188;2022-08-21T05:36:22;14.30;99.90
51615;DHT22;37695;52.960;6.188;2022-08-21T05:38:48;14.40;99.90
51615;DHT22;37695;52.960;6.188;2022-08-21T05:41:14;14.40;99.90
51615;DHT22;37695;52.960;6.188;2022-08-21T05:43:39;14.40;99.90
51615;DHT22;37695;52.960;6.188;2022-08-21T05:46:06;14.50;99.90
51615;DHT22;37695;52.960;6.188;2022-08-21T05:48:32;14.50;99.90
51615;DHT22;37695;52.960;6.188;2022-08-21T05:50:58;14.50;99.90
51615;DHT22;37695;52.960;6.188;2022-08-21T05:53:24;14.60;99.90
51615;DHT22;37695;52.960;6.188;2022-08-21T05:55:51;14.60;99.90
51615;DHT22;37695;52.960;6.188;2022-08-21T05:58:19;14.70;99.90
51615;DHT22;37695;52.960;6.188;2022-08-21T06:00:45;14.70;99.90
51615;DHT22;37695;52.960;6.188;2022-08-21T06:03:24;14.80;99.90
51615;DHT22;37695;52.960;6.188;2022-08-21T06:05:51;14.90;99.90
51615;DHT22;37695;52.960;6.188;2022-08-21T06:08:17;14.90;99.90
51615;DHT22;37695;52.960;6.188;2022-08-21T06:10:44;15.00;99.90
51615;DHT22;37695;52.960;6.188;2022-08-21T06:13:10;15.10;99.90
51615;DHT22;37695;52.960;6.188;2022-08-21T06:15:36;15.10;99.90
51615;DHT22;37695;52.960;6.188;2022-08-21T06:18:02;15.20;99.90
51615;DHT22;37695;52.960;6.188;2022-08-21T06:20:28;15.30;99.90
51615;DHT22;37695;52.960;6.188;2022-08-21T06:22:54;15.40;99.90
51615;DHT22;37695;52.960;6.188;2022-08-21T06:25:19;15.40;99.90
51615;DHT22;37695;52.960;6.188;2022-08-21T06:27:45;15.50;99.90
51615;DHT22;37695;52.960;6.188;2022-08-21T06:30:11;15.60;99.90
51615;DHT22;37695;52.960;6.188;2022-08-21T06:32:37;15.70;99.90
51615;DHT22;37695;52.960;6.188;2022-08-21T06:35:04;15.80;99.90
51615;DHT22;37695;52.960;6.188;2022-08-21T06:37:29;15.80;99.90
51615;DHT22;37695;52.960;6.188;2022-08-21T06:39:55;15.90;99.90
51615;DHT22;37695;52.960;6.188;2022-08-21T06:42:21;16.00;99.90
51615;DHT22;37695;52.960;6.188;2022-08-21T06:44:47;16.00;99.90
51615;DHT22;37695;52.960;6.188;2022-08-21T06:47:13;16.10;99.90
51615;DHT22;37695;52.960;6.188;2022-08-21T06:49:39;16.20;99.90
51615;DHT22;37695;52.960;6.188;2022-08-21T06:52:09;16.30;99.90
51615;DHT22;37695;52.960;6.188;2022-08-21T06:54:35;16.40;99.90
51615;DHT22;37695;52.960;6.188;2022-08-21T06:57:01;16.50;99.90
51615;DHT22;37695;52.960;6.188;2022-08-21T06:59:27;16.50;99.90
51615;DHT22;37695;52.960;6.188;2022-08-21T07:01:52;16.70;99.90
51615;DHT22;37695;52.960;6.188;2022-08-21T07:04:18;16.80;99.90
51615;DHT22;37695;52.960;6.188;2022-08-21T07:06:45;16.90;99.90
51615;DHT22;37695;52.960;6.188;2022-08-21T07:09:10;17.00;99.90
51615;DHT22;37695;52.960;6.188;2022-08-21T07:11:37;17.10;99.90
51615;DHT22;37695;52.960;6.188;2022-08-21T07:14:03;17.20;99.90
51615;DHT22;37695;52.960;6.188;2022-08-21T07:16:28;17.40;99.90
51615;DHT22;37695;52.960;6.188;2022-08-21T07:18:54;17.40;99.90
51615;DHT22;37695;52.960;6.188;2022-08-21T07:21:20;17.60;99.90
51615;DHT22;37695;52.960;6.188;2022-08-21T07:23:50;17.70;99.90
51615;DHT22;37695;52.960;6.188;2022-08-21T07:26:18;17.80;99.90
51615;DHT22;37695;52.960;6.188;2022-08-21T07:28:45;17.90;99.90
51615;DHT22;37695;52.960;6.188;2022-08-21T07:31:14;18.10;99.90
51615;DHT22;37695;52.960;6.188;2022-08-21T07:33:40;18.10;99.90
51615;DHT22;37695;52.960;6.188;2022-08-21T07:36:06;18.20;99.90
51615;DHT22;37695;52.960;6.188;2022-08-21T07:38:32;18.30;99.90
51615;DHT22;37695;52.960;6.188;2022-08-21T07:41:00;18.50;99.90
51615;DHT22;37695;52.960;6.188;2022-08-21T07:43:27;18.60;99.90
51615;DHT22;37695;52.960;6.188;2022-08-21T07:45:53;18.70;99.90
51615;DHT22;37695;52.960;6.188;2022-08-21T07:48:22;18.90;99.90
51615;DHT22;37695;52.960;6.188;2022-08-21T07:50:48;19.00;99.90
51615;DHT22;37695;52.960;6.188;2022-08-21T07:53:14;19.10;99.90
51615;DHT22;37695;52.960;6.188;2022-08-21T07:55:40;19.20;99.90
51615;DHT22;37695;52.960;6.188;2022-08-21T07:58:06;19.30;99.90
51615;DHT22;37695;52.960;6.188;2022-08-21T08:00:32;19.30;99.90
51615;DHT22;37695;52.960;6.188;2022-08-21T08:02:58;19.40;99.90
51615;DHT22;37695;52.960;6.188;2022-08-21T08:05:29;19.50;99.90
51615;DHT22;37695;52.960;6.188;2022-08-21T08:07:55;19.50;99.90
51615;DHT22;37695;52.960;6.188;2022-08-21T08:10:21;19.60;99.90
51615;DHT22;37695;52.960;6.188;2022-08-21T08:12:47;19.80;99.90
51615;DHT22;37695;52.960;6.188;2022-08-21T08:15:16;19.80;99.90
51615;DHT22;37695;52.960;6.188;2022-08-21T08:17:42;19.90;99.90
51615;DHT22;37695;52.960;6.188;2022-08-21T08:20:09;20.00;99.90
51615;DHT22;37695;52.960;6.188;2022-08-21T08:22:37;20.10;99.90
51615;DHT22;37695;52.960;6.188;2022-08-21T08:25:04;20.20;99.90
51615;DHT22;37695;52.960;6.188;2022-08-21T08:27:30;20.30;99.90
51615;DHT22;37695;52.960;6.188;2022-08-21T08:29:56;20.40;99.90
51615;DHT22;37695;52.960;6.188;2022-08-21T08:32:22;20.50;99.90
51615;DHT22;37695;52.960;6.188;2022-08-21T08:34:48;20.50;99.90
51615;DHT22;37695;52.960;6.188;2022-08-21T08:37:15;20.60;99.90
51615;DHT22;37695;52.960;6.188;2022-08-21T08:39:41;20.70;99.90
51615;DHT22;37695;52.960;6.188;2022-08-21T08:42:13;20.80;99.90
51615;DHT22;37695;52.960;6.188;2022-08-21T08:44:43;20.90;99.90
51615;DHT22;37695;52.960;6.188;2022-08-21T08:47:12;21.00;99.90
51615;DHT22;37695;52.960;6.188;2022-08-21T08:49:55;21.10;99.90
51615;DHT22;37695;52.960;6.188;2022-08-21T08:52:27;21.20;99.90
51615;DHT22;37695;52.960;6.188;2022-08-21T08:57:29;21.30;99.90
51615;DHT22;37695;52.960;6.188;2022-08-21T08:59:59;21.40;99.90
51615;DHT22;37695;52.960;6.188;2022-08-21T09:02:25;21.60;99.90
51615;DHT22;37695;52.960;6.188;2022-08-21T09:04:53;21.70;99.90
51615;DHT22;37695;52.960;6.188;2022-08-21T09:10:30;21.60;99.90
51615;DHT22;37695;52.960;6.188;2022-08-21T09:13:24;21.80;99.90
51615;DHT22;37695;52.960;6.188;2022-08-21T09:24:48;22.10;99.90
51615;DHT22;37695;52.960;6.188;2022-08-21T09:27:19;22.40;99.90
51615;DHT22;37695;52.960;6.188;2022-08-21T09:29:48;22.60;99.90
51615;DHT22;37695;52.960;6.188;2022-08-21T09:32:31;22.80;99.90
51615;DHT22;37695;52.960;6.188;2022-08-21T09:37:25;23.00;99.90
51615;DHT22;37695;52.960;6.188;2022-08-21T09:39:51;22.70;99.90
51615;DHT22;37695;52.960;6.188;2022-08-21T09:42:31;22.00;99.90
51615;DHT22;37695;52.960;6.188;2022-08-21T09:45:17;21.60;99.90
51615;DHT22;37695;52.960;6.188;2022-08-21T09:47:44;21.20;99.90
51615;DHT22;37695;52.960;6.188;2022-08-21T09:50:14;21.10;99.90
51615;DHT22;37695;52.960;6.188;2022-08-21T09:52:49;21.40;99.90
51615;DHT22;37695;52.960;6.188;2022-08-21T09:58:11;22.10;99.90
51615;DHT22;37695;52.960;6.188;2022-08-21T10:00:37;22.40;99.90
51615;DHT22;37695;52.960;6.188;2022-08-21T10:03:15;22.60;99.90
51615;DHT22;37695;52.960;6.188;2022-08-21T10:05:51;22.60;99.90
51615;DHT22;37695;52.960;6.188;2022-08-21T10:08:22;22.70;99.90
51615;DHT22;37695;52.960;6.188;2022-08-21T10:10:55;22.90;99.90
51615;DHT22;37695;52.960;6.188;2022-08-21T10:24:32;23.30;99.90
51615;DHT22;37695;52.960;6.188;2022-08-21T10:30:08;23.00;99.90
51615;DHT22;37695;52.960;6.188;2022-08-21T10:32:43;22.60;99.90
51615;DHT22;37695;52.960;6.188;2022-08-21T10:35:15;22.80;99.90
51615;DHT22;37695;52.960;6.188;2022-08-21T10:40:42;23.60;99.90
51615;DHT22;37695;52.960;6.188;2022-08-21T10:43:30;23.90;99.90
51615;DHT22;37695;52.960;6.188;2022-08-21T10:46:12;24.10;99.90
51615;DHT22;37695;52.960;6.188;2022-08-21T10:51:42;24.50;99.90
51615;DHT22;37695;52.960;6.188;2022-08-21T10:57:00;24.10;99.90
51615;DHT22;37695;52.960;6.188;2022-08-21T10:59:33;23.80;99.90
51615;DHT22;37695;52.960;6.188;2022-08-21T11:02:21;23.50;99.90
51615;DHT22;37695;52.960;6.188;2022-08-21T11:04:55;23.60;99.90
51615;DHT22;37695;52.960;6.188;2022-08-21T11:10:00;23.80;99.90
51615;DHT22;37695;52.960;6.188;2022-08-21T11:12:43;24.00;99.90
51615;DHT22;37695;52.960;6.188;2022-08-21T11:15:23;24.50;99.90
51615;DHT22;37695;52.960;6.188;2022-08-21T11:18:19;24.40;99.90
51615;DHT22;37695;52.960;6.188;2022-08-21T11:21:25;24.50;99.90
51615;DHT22;37695;52.960;6.188;2022-08-21T11:27:01;24.30;99.90
51615;DHT22;37695;52.960;6.188;2022-08-21T11:29:36;24.40;99.90
51615;DHT22;37695;52.960;6.188;2022-08-21T11:35:25;24.40;99.80
51615;DHT22;37695;52.960;6.188;2022-08-21T11:38:05;24.10;99.50
51615;DHT22;37695;52.960;6.188;2022-08-21T11:43:23;23.70;99.90
51615;DHT22;37695;52.960;6.188;2022-08-21T11:49:03;23.20;99.90
51615;DHT22;37695;52.960;6.188;2022-08-21T11:51:44;23.10;99.90
51615;DHT22;37695;52.960;6.188;2022-08-21T11:54:37;23.30;99.90
51615;DHT22;37695;52.960;6.188;2022-08-21T12:00:05;23.50;99.90
51615;DHT22;37695;52.960;6.188;2022-08-21T12:02:38;23.50;99.90
51615;DHT22;37695;52.960;6.188;2022-08-21T12:05:07;23.70;99.90
51615;DHT22;37695;52.960;6.188;2022-08-21T12:07:40;23.60;99.90
51615;DHT22;37695;52.960;6.188;2022-08-21T12:10:10;23.40;99.90
51615;DHT22;37695;52.960;6.188;2022-08-21T12:12:39;23.20;99.90
51615;DHT22;37695;52.960;6.188;2022-08-21T12:18:01;22.90;99.90
51615;DHT22;37695;52.960;6.188;2022-08-21T12:23:23;23.00;99.90
51615;DHT22;37695;52.960;6.188;2022-08-21T12:28:25;22.90;99.90
51615;DHT22;37695;52.960;6.188;2022-08-21T12:30:51;22.90;99.90
51615;DHT22;37695;52.960;6.188;2022-08-21T12:33:34;22.90;99.90
51615;DHT22;37695;52.960;6.188;2022-08-21T12:36:10;22.80;99.90
51615;DHT22;37695;52.960;6.188;2022-08-21T12:39:14;22.70;99.90
51615;DHT22;37695;52.960;6.188;2022-08-21T12:41:53;22.60;99.90
51615;DHT22;37695;52.960;6.188;2022-08-21T12:44:37;22.80;99.90
51615;DHT22;37695;52.960;6.188;2022-08-21T12:47:12;22.80;99.90
51615;DHT22;37695;52.960;6.188;2022-08-21T12:49:54;22.80;99.90
51615;DHT22;37695;52.960;6.188;2022-08-21T12:52:28;22.80;99.90
51615;DHT22;37695;52.960;6.188;2022-08-21T12:54:54;22.70;99.90
51615;DHT22;37695;52.960;6.188;2022-08-21T12:57:26;22.60;99.90
51615;DHT22;37695;52.960;6.188;2022-08-21T12:59:57;22.50;99.90
51615;DHT22;37695;52.960;6.188;2022-08-21T13:02:28;22.40;99.90
51615;DHT22;37695;52.960;6.188;2022-08-21T13:04:55;22.40;99.90
51615;DHT22;37695;52.960;6.188;2022-08-21T13:07:30;22.50;99.90
51615;DHT22;37695;52.960;6.188;2022-08-21T13:10:14;22.70;99.90
51615;DHT22;37695;52.960;6.188;2022-08-21T13:12:42;23.10;99.90
51615;DHT22;37695;52.960;6.188;2022-08-21T13:15:08;23.30;99.90
51615;DHT22;37695;52.960;6.188;2022-08-21T13:17:36;23.50;99.90
51615;DHT22;37695;52.960;6.188;2022-08-21T13:20:18;23.50;99.90
51615;DHT22;37695;52.960;6.188;2022-08-21T13:22:44;23.60;99.90
51615;DHT22;37695;52.960;6.188;2022-08-21T13:25:12;23.50;99.90
51615;DHT22;37695;52.960;6.188;2022-08-21T13:27:38;23.50;99.90
51615;DHT22;37695;52.960;6.188;2022-08-21T13:30:18;23.50;99.90
51615;DHT22;37695;52.960;6.188;2022-08-21T13:32:51;23.40;99.90
51615;DHT22;37695;52.960;6.188;2022-08-21T13:35:24;23.30;99.90
51615;DHT22;37695;52.960;6.188;2022-08-21T13:37:51;23.30;99.90
51615;DHT22;37695;52.960;6.188;2022-08-21T13:40:39;23.30;99.90
51615;DHT22;37695;52.960;6.188;2022-08-21T13:43:13;23.30;99.90
51615;DHT22;37695;52.960;6.188;2022-08-21T13:45:44;23.30;99.90
51615;DHT22;37695;52.960;6.188;2022-08-21T13:48:10;23.30;99.90
51615;DHT22;37695;52.960;6.188;2022-08-21T13:50:37;23.30;99.90
51615;DHT22;37695;52.960;6.188;2022-08-21T13:53:06;23.30;99.90
51615;DHT22;37695;52.960;6.188;2022-08-21T13:55:39;23.40;99.90
51615;DHT22;37695;52.960;6.188;2022-08-21T13:58:06;23.40;99.90
51615;DHT22;37695;52.960;6.188;2022-08-21T14:00:34;23.50;99.90
51615;DHT22;37695;52.960;6.188;2022-08-21T14:03:07;23.50;99.90
51615;DHT22;37695;52.960;6.188;2022-08-21T14:05:37;23.60;99.90
51615;DHT22;37695;52.960;6.188;2022-08-21T14:08:08;23.50;99.90
51615;DHT22;37695;52.960;6.188;2022-08-21T14:10:41;23.50;99.90
51615;DHT22;37695;52.960;6.188;2022-08-21T14:13:07;23.40;99.90
51615;DHT22;37695;52.960;6.188;2022-08-21T14:15:34;23.10;99.90
51615;DHT22;37695;52.960;6.188;2022-08-21T14:18:15;23.20;99.90
51615;DHT22;37695;52.960;6.188;2022-08-21T14:20:42;23.20;99.90
51615;DHT22;37695;52.960;6.188;2022-08-21T14:23:08;23.20;99.90
51615;DHT22;37695;52.960;6.188;2022-08-21T14:25:44;23.10;99.90
51615;DHT22;37695;52.960;6.188;2022-08-21T14:28:19;23.10;99.90
51615;DHT22;37695;52.960;6.188;2022-08-21T14:30:48;23.20;99.90
51615;DHT22;37695;52.960;6.188;2022-08-21T14:33:31;23.10;99.90
51615;DHT22;37695;52.960;6.188;2022-08-21T14:35:57;23.10;99.90
51615;DHT22;37695;52.960;6.188;2022-08-21T14:38:25;22.90;99.90
51615;DHT22;37695;52.960;6.188;2022-08-21T14:40:57;22.80;99.90
51615;DHT22;37695;52.960;6.188;2022-08-21T14:43:26;22.90;99.90
51615;DHT22;37695;52.960;6.188;2022-08-21T14:45:51;23.10;99.90
51615;DHT22;37695;52.960;6.188;2022-08-21T14:48:17;23.30;99.90
51615;DHT22;37695;52.960;6.188;2022-08-21T14:50:42;23.40;99.90
51615;DHT22;37695;52.960;6.188;2022-08-21T14:53:08;23.30;99.90
51615;DHT22;37695;52.960;6.188;2022-08-21T14:55:34;23.20;99.90
51615;DHT22;37695;52.960;6.188;2022-08-21T14:58:25;23.20;99.90
51615;DHT22;37695;52.960;6.188;2022-08-21T15:00:52;23.00;99.90
51615;DHT22;37695;52.960;6.188;2022-08-21T15:03:19;22.90;99.90
51615;DHT22;37695;52.960;6.188;2022-08-21T15:05:47;22.80;99.90
51615;DHT22;37695;52.960;6.188;2022-08-21T15:08:13;22.80;99.90
51615;DHT22;37695;52.960;6.188;2022-08-21T15:10:38;22.80;99.90
51615;DHT22;37695;52.960;6.188;2022-08-21T15:13:05;22.80;99.90
51615;DHT22;37695;52.960;6.188;2022-08-21T15:15:35;22.80;99.90
51615;DHT22;37695;52.960;6.188;2022-08-21T15:18:03;22.70;99.90
51615;DHT22;37695;52.960;6.188;2022-08-21T15:20:29;22.70;99.90
51615;DHT22;37695;52.960;6.188;2022-08-21T15:22:55;22.80;99.90
51615;DHT22;37695;52.960;6.188;2022-08-21T15:25:21;22.80;99.90
51615;DHT22;37695;52.960;6.188;2022-08-21T15:27:47;22.80;99.90
51615;DHT22;37695;52.960;6.188;2022-08-21T15:30:12;22.90;99.90
51615;DHT22;37695;52.960;6.188;2022-08-21T15:32:38;22.90;99.90
51615;DHT22;37695;52.960;6.188;2022-08-21T15:35:05;22.90;99.90
51615;DHT22;37695;52.960;6.188;2022-08-21T15:37:31;23.00;99.90
51615;DHT22;37695;52.960;6.188;2022-08-21T15:39:57;23.10;99.90
51615;DHT22;37695;52.960;6.188;2022-08-21T15:42:23;23.00;99.90
51615;DHT22;37695;52.960;6.188;2022-08-21T15:44:49;22.90;99.80
51615;DHT22;37695;52.960;6.188;2022-08-21T15:47:18;22.90;99.90
51615;DHT22;37695;52.960;6.188;2022-08-21T15:49:45;22.90;99.70
51615;DHT22;37695;52.960;6.188;2022-08-21T15:52:19;22.80;99.90
51615;DHT22;37695;52.960;6.188;2022-08-21T15:54:45;22.80;99.80
51615;DHT22;37695;52.960;6.188;2022-08-21T15:57:16;22.80;99.80
51615;DHT22;37695;52.960;6.188;2022-08-21T15:59:45;22.80;99.70
51615;DHT22;37695;52.960;6.188;2022-08-21T16:02:19;22.80;99.90
51615;DHT22;37695;52.960;6.188;2022-08-21T16:04:46;22.70;99.90
51615;DHT22;37695;52.960;6.188;2022-08-21T16:07:12;22.70;99.90
51615;DHT22;37695;52.960;6.188;2022-08-21T16:09:38;22.70;99.90
51615;DHT22;37695;52.960;6.188;2022-08-21T16:12:05;22.70;99.90
51615;DHT22;37695;52.960;6.188;2022-08-21T16:14:31;22.80;99.90
51615;DHT22;37695;52.960;6.188;2022-08-21T16:16:59;22.70;99.90
51615;DHT22;37695;52.960;6.188;2022-08-21T16:19:27;22.70;99.90
51615;DHT22;37695;52.960;6.188;2022-08-21T16:21:53;22.60;99.90
51615;DHT22;37695;52.960;6.188;2022-08-21T16:24:18;22.60;99.90
51615;DHT22;37695;52.960;6.188;2022-08-21T16:26:44;22.60;99.90
51615;DHT22;37695;52.960;6.188;2022-08-21T16:29:10;22.50;99.90
51615;DHT22;37695;52.960;6.188;2022-08-21T16:31:36;22.40;99.90
51615;DHT22;37695;52.960;6.188;2022-08-21T16:34:02;22.30;99.90
51615;DHT22;37695;52.960;6.188;2022-08-21T16:36:27;22.40;99.90
51615;DHT22;37695;52.960;6.188;2022-08-21T16:38:54;22.20;99.90
51615;DHT22;37695;52.960;6.188;2022-08-21T16:41:22;22.30;99.90
51615;DHT22;37695;52.960;6.188;2022-08-21T16:43:49;22.30;99.90
51615;DHT22;37695;52.960;6.188;2022-08-21T16:46:16;22.30;99.90
51615;DHT22;37695;52.960;6.188;2022-08-21T16:48:43;22.20;99.90